createdAt,value
2023-01-19T00:01:21.658Z,2.24
2023-01-19T00:03:54.915Z,2.19
2023-01-19T00:06:27.595Z,2.10
2023-01-19T00:09:00.423Z,2.08
2023-01-19T00:11:33.549Z,2.09
2023-01-19T00:14:06.950Z,2.12
2023-01-19T00:16:40.719Z,2.16
2023-01-19T00:19:13.623Z,2.18
2023-01-19T00:21:47.097Z,2.19
2023-01-19T00:24:19.804Z,2.21
2023-01-19T00:26:53.600Z,2.21
2023-01-19T00:29:27.782Z,2.20
2023-01-19T00:32:00.810Z,2.23
2023-01-19T00:34:39.760Z,2.23
2023-01-19T00:37:13.542Z,2.25
2023-01-19T00:39:47.489Z,2.25
2023-01-19T00:42:37.877Z,2.27
2023-01-19T00:45:14.504Z,2.26
2023-01-19T00:47:48.063Z,2.26
2023-01-19T00:50:20.917Z,2.22
2023-01-19T00:52:55.909Z,2.21
2023-01-19T00:55:31.282Z,2.20
2023-01-19T00:58:04.956Z,2.21
2023-01-19T01:00:37.847Z,2.19
2023-01-19T01:03:11.185Z,2.17
2023-01-19T01:05:45.154Z,2.18
2023-01-19T01:08:17.806Z,2.17
2023-01-19T01:10:51.495Z,2.19
2023-01-19T01:13:27.263Z,2.21
2023-01-19T01:16:00.658Z,2.22
2023-01-19T01:18:33.691Z,2.23
2023-01-19T01:21:08.156Z,2.24
2023-01-19T01:23:40.837Z,2.25
2023-01-19T01:26:13.552Z,2.24
2023-01-19T01:28:46.240Z,2.25
2023-01-19T01:31:18.926Z,2.26
2023-01-19T01:33:52.064Z,2.25
2023-01-19T01:36:25.132Z,2.25
2023-01-19T01:38:57.848Z,2.26
2023-01-19T01:41:30.887Z,2.26
2023-01-19T01:44:08.316Z,2.26
2023-01-19T01:46:41.332Z,2.27
2023-01-19T01:49:18.805Z,2.28
2023-01-19T01:51:54.660Z,2.27
2023-01-19T01:54:31.395Z,2.26
2023-01-19T01:57:12.420Z,2.24
2023-01-19T01:59:50.119Z,2.23
2023-01-19T02:02:43.642Z,2.22
2023-01-19T02:05:22.799Z,2.21
2023-01-19T02:08:17.365Z,2.20
2023-01-19T02:11:09.957Z,2.17
2023-01-19T02:13:45.276Z,2.15
2023-01-19T02:16:20.172Z,2.16
2023-01-19T02:18:53.455Z,2.18
2023-01-19T02:21:32.677Z,2.20
2023-01-19T02:24:06.176Z,2.22
2023-01-19T02:26:42.789Z,2.22
2023-01-19T02:29:18.034Z,2.23
2023-01-19T02:31:51.053Z,2.24
2023-01-19T02:34:24.509Z,2.26
2023-01-19T02:37:00.364Z,2.26
2023-01-19T02:39:38.878Z,2.27
2023-01-19T02:42:15.748Z,2.27
2023-01-19T02:44:51.650Z,2.28
2023-01-19T02:47:24.304Z,2.28
2023-01-19T02:50:01.673Z,2.28
2023-01-19T02:52:35.522Z,2.27
2023-01-19T02:55:18.328Z,2.26
2023-01-19T02:58:01.034Z,2.27
2023-01-19T03:00:45.900Z,2.27
2023-01-19T03:03:31.480Z,2.26
2023-01-19T03:06:10.753Z,2.26
2023-01-19T03:08:51.475Z,2.27
2023-01-19T03:11:27.810Z,2.27
2023-01-19T03:14:05.332Z,2.29
2023-01-19T03:16:42.070Z,2.29
2023-01-19T03:19:20.466Z,2.25
2023-01-19T03:21:57.032Z,2.23
2023-01-19T03:24:37.105Z,2.23
2023-01-19T03:27:16.605Z,2.24
2023-01-19T03:29:54.135Z,2.26
2023-01-19T03:32:31.565Z,2.26
2023-01-19T03:35:09.803Z,2.22
2023-01-19T03:37:45.924Z,2.19
2023-01-19T03:40:19.977Z,2.20
2023-01-19T03:42:53.556Z,2.21
2023-01-19T03:45:26.658Z,2.22
2023-01-19T03:48:01.871Z,2.24
2023-01-19T03:50:35.007Z,2.25
2023-01-19T03:53:11.791Z,2.25
2023-01-19T03:55:47.227Z,2.26
2023-01-19T03:58:20.175Z,2.24
2023-01-19T04:00:53.131Z,2.24
2023-01-19T04:03:25.916Z,2.25
2023-01-19T04:05:59.523Z,2.25
2023-01-19T04:08:32.586Z,2.26
2023-01-19T04:11:05.485Z,2.28
2023-01-19T04:13:38.607Z,2.27
2023-01-19T04:16:13.600Z,2.19
2023-01-19T04:18:46.497Z,2.08
2023-01-19T04:21:20.768Z,2.00
2023-01-19T04:23:53.958Z,1.93
2023-01-19T04:26:26.687Z,1.93
2023-01-19T04:28:59.394Z,1.90
2023-01-19T04:31:33.587Z,1.91
2023-01-19T04:34:07.346Z,1.95
2023-01-19T04:36:40.440Z,1.98
2023-01-19T04:39:13.440Z,1.98
2023-01-19T04:41:46.536Z,1.89
2023-01-19T04:44:19.716Z,1.80
2023-01-19T04:46:52.457Z,1.79
2023-01-19T04:49:25.249Z,1.73
2023-01-19T04:51:58.370Z,1.74
2023-01-19T04:54:31.249Z,1.74
2023-01-19T04:57:03.904Z,1.77
2023-01-19T04:59:37.363Z,1.80
2023-01-19T05:02:11.851Z,1.82
2023-01-19T05:04:45.028Z,1.80
2023-01-19T05:07:17.706Z,1.80
2023-01-19T05:09:50.357Z,1.81
2023-01-19T05:12:23.353Z,1.80
2023-01-19T05:14:56.841Z,1.81
2023-01-19T05:17:30.234Z,1.75
2023-01-19T05:20:03.844Z,1.70
2023-01-19T05:22:37.044Z,1.73
2023-01-19T05:25:12.060Z,1.79
2023-01-19T05:27:45.360Z,1.81
2023-01-19T05:30:19.410Z,1.79
2023-01-19T05:32:52.499Z,1.81
2023-01-19T05:35:35.401Z,1.83
2023-01-19T05:38:09.217Z,1.83
2023-01-19T05:40:42.886Z,1.84
2023-01-19T05:43:17.921Z,1.86
2023-01-19T05:45:50.959Z,1.86
2023-01-19T05:48:24.551Z,1.84
2023-01-19T05:51:01.754Z,1.88
2023-01-19T05:53:35.668Z,1.88
2023-01-19T05:56:10.811Z,1.86
2023-01-19T05:58:43.984Z,1.86
2023-01-19T06:01:16.747Z,1.88
2023-01-19T06:03:50.102Z,1.90
2023-01-19T06:06:22.889Z,1.92
2023-01-19T06:08:56.410Z,1.95
2023-01-19T06:11:30.373Z,1.97
2023-01-19T06:14:03.315Z,1.97
2023-01-19T06:16:35.988Z,1.98
2023-01-19T06:19:09.840Z,2.00
2023-01-19T06:21:42.662Z,1.98
2023-01-19T06:24:16.035Z,1.93
2023-01-19T06:26:48.680Z,1.92
2023-01-19T06:29:22.189Z,1.93
2023-01-19T06:31:55.634Z,1.97
2023-01-19T06:34:29.236Z,2.00
2023-01-19T06:37:02.037Z,2.02
2023-01-19T06:39:34.763Z,2.04
2023-01-19T06:42:08.190Z,2.03
2023-01-19T06:44:47.353Z,1.98
2023-01-19T06:47:21.275Z,1.93
2023-01-19T06:49:54.314Z,1.90
2023-01-19T06:52:27.198Z,1.87
2023-01-19T06:55:00.071Z,1.90
2023-01-19T06:57:32.897Z,1.94
2023-01-19T07:00:08.948Z,1.99
2023-01-19T07:02:45.219Z,2.01
2023-01-19T07:05:18.828Z,2.04
2023-01-19T07:07:56.803Z,2.04
2023-01-19T07:11:25.391Z,2.04
2023-01-19T07:13:22.347Z,2.02
2023-01-19T07:15:55.030Z,2.03
2023-01-19T07:18:27.628Z,2.04
2023-01-19T07:21:01.719Z,2.07
2023-01-19T07:23:35.136Z,2.08
2023-01-19T07:26:07.930Z,2.09
2023-01-19T07:28:41.835Z,2.10
2023-01-19T07:31:15.526Z,2.12
2023-01-19T07:33:48.716Z,2.12
2023-01-19T07:36:21.496Z,2.13
2023-01-19T07:38:54.254Z,2.14
2023-01-19T07:41:27.372Z,2.18
2023-01-19T07:44:00.398Z,2.20
2023-01-19T07:46:33.204Z,2.22
2023-01-19T07:49:06.765Z,2.24
2023-01-19T07:51:39.392Z,2.25
2023-01-19T07:54:13.031Z,2.26
2023-01-19T07:56:45.884Z,2.24
2023-01-19T07:59:18.696Z,2.24
2023-01-19T08:01:52.330Z,2.28
2023-01-19T08:04:25.224Z,2.31
2023-01-19T08:06:59.040Z,2.35
2023-01-19T08:09:31.688Z,2.37
2023-01-19T08:12:04.477Z,2.32
2023-01-19T08:14:37.878Z,2.32
2023-01-19T08:17:14.065Z,2.36
2023-01-19T08:19:48.037Z,2.40
2023-01-19T08:22:20.667Z,2.42
2023-01-19T08:24:55.122Z,2.39
2023-01-19T08:27:29.053Z,2.33
2023-01-19T08:30:03.900Z,2.38
2023-01-19T08:32:37.833Z,2.44
2023-01-19T08:35:12.713Z,2.47
2023-01-19T08:37:45.349Z,2.49
2023-01-19T08:40:19.811Z,2.52
2023-01-19T08:42:52.601Z,2.53
2023-01-19T08:45:25.781Z,2.58
2023-01-19T08:48:01.606Z,2.59
2023-01-19T08:50:35.722Z,2.59
2023-01-19T08:53:09.777Z,2.62
2023-01-19T08:55:43.848Z,2.64
2023-01-19T08:58:17.609Z,2.65
2023-01-19T09:00:52.775Z,2.69
2023-01-19T09:03:27.500Z,2.72
2023-01-19T09:06:00.789Z,2.74
2023-01-19T09:08:33.929Z,2.76
2023-01-19T09:11:11.501Z,2.80
2023-01-19T09:13:44.583Z,2.82
2023-01-19T09:16:17.301Z,2.84
2023-01-19T09:18:50.940Z,2.86
2023-01-19T09:21:24.363Z,2.86
2023-01-19T09:23:58.564Z,2.87
2023-01-19T09:26:33.329Z,2.84
2023-01-19T09:29:06.958Z,2.82
2023-01-19T09:31:41.967Z,2.83
2023-01-19T09:34:15.857Z,2.85
2023-01-19T09:36:49.955Z,2.86
2023-01-19T09:39:22.700Z,2.86
2023-01-19T09:42:06.201Z,2.89
2023-01-19T09:44:38.945Z,2.90
2023-01-19T09:47:18.551Z,2.94
2023-01-19T09:50:00.399Z,2.95
2023-01-19T09:52:36.626Z,2.97
2023-01-19T09:55:22.764Z,2.95
2023-01-19T09:57:55.817Z,2.97
2023-01-19T10:00:32.851Z,2.98
2023-01-19T10:03:14.628Z,2.96
2023-01-19T10:05:54.023Z,2.98
2023-01-19T10:08:36.995Z,3.01
2023-01-19T10:11:29.151Z,3.03
2023-01-19T10:14:16.104Z,3.01
2023-01-19T10:16:59.075Z,2.92
2023-01-19T10:19:38.228Z,2.90
2023-01-19T10:22:22.799Z,2.94
2023-01-19T10:24:58.548Z,2.98
2023-01-19T10:27:34.354Z,3.00
2023-01-19T10:30:16.756Z,3.04
2023-01-19T10:32:50.709Z,3.06
2023-01-19T10:35:26.636Z,3.12
2023-01-19T10:38:03.657Z,3.11
2023-01-19T10:40:41.199Z,3.12
2023-01-19T10:43:41.783Z,3.11
2023-01-19T10:46:26.690Z,3.12
2023-01-19T10:48:59.567Z,3.14
2023-01-19T10:51:32.599Z,3.15
2023-01-19T10:54:08.737Z,3.18
2023-01-19T10:56:43.476Z,3.23
2023-01-19T10:59:34.421Z,3.25
2023-01-19T11:02:20.878Z,3.25
2023-01-19T11:04:57.639Z,3.30
2023-01-19T11:07:34.391Z,3.34
2023-01-19T11:10:24.788Z,3.40
2023-01-19T11:13:04.572Z,3.44
2023-01-19T11:15:44.043Z,3.48
2023-01-19T11:18:29.020Z,3.51
2023-01-19T11:21:03.844Z,3.49
2023-01-19T11:23:43.087Z,3.49
2023-01-19T11:26:28.815Z,3.50
2023-01-19T11:29:04.645Z,3.53
2023-01-19T11:31:38.368Z,3.59
2023-01-19T11:34:27.652Z,3.62
2023-01-19T11:37:03.267Z,3.64
2023-01-19T11:39:48.892Z,3.68
2023-01-19T11:42:22.854Z,3.70
2023-01-19T11:45:03.513Z,3.76
2023-01-19T11:47:42.672Z,3.80
2023-01-19T11:50:26.347Z,3.81
2023-01-19T11:53:06.160Z,3.76
2023-01-19T11:55:43.868Z,3.69
2023-01-19T11:58:20.243Z,3.60
2023-01-19T12:00:57.478Z,3.55
2023-01-19T12:03:33.950Z,3.62
2023-01-19T12:06:13.385Z,3.68
2023-01-19T12:08:50.012Z,3.74
2023-01-19T12:11:26.565Z,3.78
2023-01-19T12:14:01.456Z,3.80
2023-01-19T12:16:38.829Z,3.79
2023-01-19T12:19:17.471Z,3.81
2023-01-19T12:21:52.659Z,3.80
2023-01-19T12:24:34.095Z,3.79
2023-01-19T12:27:15.873Z,3.79
2023-01-19T12:29:49.409Z,3.78
2023-01-19T12:32:36.956Z,3.80
2023-01-19T12:35:47.799Z,3.81
2023-01-19T12:38:42.133Z,3.68
2023-01-19T12:41:28.043Z,3.60
2023-01-19T12:44:30.765Z,3.54
2023-01-19T12:47:20.364Z,3.46
2023-01-19T12:49:59.594Z,3.40
2023-01-19T12:52:41.706Z,3.35
2023-01-19T12:55:25.484Z,3.34
2023-01-19T12:58:03.398Z,3.32
2023-01-19T13:00:41.574Z,3.29
2023-01-19T13:04:01.885Z,3.27
2023-01-19T13:07:18.068Z,3.20
2023-01-19T13:09:50.886Z,3.17
2023-01-19T13:12:26.381Z,3.16
2023-01-19T13:15:36.121Z,3.13
2023-01-19T13:18:11.761Z,3.10
2023-01-19T13:20:52.063Z,3.10
2023-01-19T13:23:28.155Z,3.16
2023-01-19T13:26:06.796Z,3.20
2023-01-19T13:28:43.772Z,3.21
2023-01-19T13:31:17.820Z,3.24
2023-01-19T13:33:54.231Z,3.26
2023-01-19T13:36:34.035Z,3.30
2023-01-19T13:39:13.949Z,3.28
2023-01-19T13:41:48.399Z,3.31
2023-01-19T13:44:26.850Z,3.35
2023-01-19T13:47:00.863Z,3.35
2023-01-19T13:49:37.549Z,3.34
2023-01-19T13:52:17.017Z,3.32
2023-01-19T13:54:55.142Z,3.26
2023-01-19T13:57:30.383Z,3.26
2023-01-19T14:00:16.740Z,3.26
2023-01-19T14:02:59.016Z,3.23
2023-01-19T14:05:35.004Z,3.23
2023-01-19T14:08:18.192Z,3.26
2023-01-19T14:11:04.329Z,3.23
2023-01-19T14:13:41.665Z,3.22
2023-01-19T14:16:18.970Z,3.26
2023-01-19T14:19:04.318Z,3.32
2023-01-19T14:21:44.619Z,3.34
2023-01-19T14:24:21.921Z,3.32
2023-01-19T14:26:56.444Z,3.27
2023-01-19T14:29:32.903Z,3.25
2023-01-19T14:32:16.390Z,3.26
2023-01-19T14:34:50.531Z,3.27
2023-01-19T14:37:26.915Z,3.28
2023-01-19T14:40:04.729Z,3.29
2023-01-19T14:42:40.599Z,3.27
2023-01-19T14:45:21.124Z,3.27
2023-01-19T14:48:00.940Z,3.26
2023-01-19T14:50:37.621Z,3.23
2023-01-19T14:53:16.882Z,3.18
2023-01-19T14:55:52.938Z,3.18
2023-01-19T14:58:31.803Z,3.18
2023-01-19T15:01:04.750Z,3.18
2023-01-19T15:03:44.679Z,3.19
2023-01-19T15:06:22.338Z,3.19
2023-01-19T15:08:55.868Z,3.19
2023-01-19T15:11:32.493Z,3.21
2023-01-19T15:14:06.591Z,3.20
2023-01-19T15:16:40.111Z,3.20
2023-01-19T15:19:16.973Z,3.20
2023-01-19T15:21:50.267Z,3.18
2023-01-19T15:24:23.529Z,3.14
2023-01-19T15:27:01.737Z,3.15
2023-01-19T15:29:34.763Z,3.16
2023-01-19T15:32:08.063Z,3.17
2023-01-19T15:34:41.105Z,3.15
2023-01-19T15:37:13.783Z,3.16
2023-01-19T15:39:46.473Z,3.19
2023-01-19T15:42:19.757Z,3.16
2023-01-19T15:44:54.254Z,3.10
2023-01-19T15:47:27.368Z,3.08
2023-01-19T15:50:00.039Z,3.06
2023-01-19T15:52:32.860Z,3.03
2023-01-19T15:55:06.302Z,3.00
2023-01-19T15:57:41.237Z,2.99
2023-01-19T16:00:16.658Z,3.00
2023-01-19T16:02:52.068Z,3.00
2023-01-19T16:05:33.977Z,3.00
2023-01-19T16:08:15.315Z,3.01
2023-01-19T16:10:48.047Z,3.01
2023-01-19T16:13:21.541Z,2.98
2023-01-19T16:15:54.159Z,2.98
2023-01-19T16:18:27.334Z,3.01
2023-01-19T16:21:00.129Z,3.05
2023-01-19T16:23:33.080Z,3.06
2023-01-19T16:26:09.503Z,3.06
2023-01-19T16:28:42.135Z,3.02
2023-01-19T16:31:16.759Z,3.00
2023-01-19T16:33:50.111Z,3.02
2023-01-19T16:36:27.202Z,3.02
2023-01-19T16:39:03.647Z,3.02
2023-01-19T16:41:37.880Z,3.03
2023-01-19T16:44:11.821Z,3.02
2023-01-19T16:46:46.774Z,3.03
2023-01-19T16:49:21.384Z,3.03
2023-01-19T16:51:55.584Z,3.03
2023-01-19T16:54:30.250Z,3.05
2023-01-19T16:57:03.646Z,3.05
2023-01-19T16:59:36.572Z,3.06
2023-01-19T17:02:11.300Z,3.01
2023-01-19T17:04:44.313Z,3.00
2023-01-19T17:07:19.132Z,2.99
2023-01-19T17:09:52.135Z,2.99
2023-01-19T17:12:25.351Z,3.00
2023-01-19T17:14:58.037Z,3.01
2023-01-19T17:17:32.164Z,3.04
2023-01-19T17:20:05.482Z,3.02
2023-01-19T17:22:38.398Z,3.01
2023-01-19T17:25:13.232Z,3.00
2023-01-19T17:27:46.105Z,3.01
2023-01-19T17:30:20.442Z,3.03
2023-01-19T17:32:53.538Z,3.06
2023-01-19T17:35:27.005Z,3.05
2023-01-19T17:38:00.629Z,3.01
2023-01-19T17:40:34.883Z,2.99
2023-01-19T17:43:08.914Z,2.99
2023-01-19T17:45:41.701Z,2.98
2023-01-19T17:48:17.624Z,2.97
2023-01-19T17:50:50.676Z,2.95
2023-01-19T17:53:23.747Z,2.90
2023-01-19T17:55:56.846Z,2.88
2023-01-19T17:58:31.005Z,2.85
2023-01-19T18:01:11.780Z,2.87
2023-01-19T18:03:45.855Z,2.86
2023-01-19T18:06:19.024Z,2.88
2023-01-19T18:08:54.363Z,2.90
2023-01-19T18:11:27.839Z,2.91
2023-01-19T18:14:02.197Z,2.88
2023-01-19T18:16:36.059Z,2.88
2023-01-19T18:19:09.453Z,2.85
2023-01-19T18:21:42.487Z,2.77
2023-01-19T18:24:16.625Z,2.73
2023-01-19T18:26:49.338Z,2.70
2023-01-19T18:29:23.144Z,2.66
2023-01-19T18:31:55.884Z,2.62
2023-01-19T18:34:28.901Z,2.59
2023-01-19T18:37:01.654Z,2.58
2023-01-19T18:39:34.772Z,2.61
2023-01-19T18:42:08.174Z,2.61
2023-01-19T18:44:40.789Z,2.58
2023-01-19T18:47:14.379Z,2.54
2023-01-19T18:49:47.146Z,2.46
2023-01-19T18:52:21.029Z,2.43
2023-01-19T18:54:53.954Z,2.40
2023-01-19T18:57:26.732Z,2.40
2023-01-19T18:59:59.480Z,2.42
2023-01-19T19:02:32.278Z,2.41
2023-01-19T19:05:05.723Z,2.40
2023-01-19T19:07:39.152Z,2.40
2023-01-19T19:10:14.539Z,2.40
2023-01-19T19:12:48.365Z,2.39
2023-01-19T19:15:21.515Z,2.31
2023-01-19T19:17:56.214Z,2.28
2023-01-19T19:20:29.052Z,2.28
2023-01-19T19:23:02.280Z,2.31
2023-01-19T19:25:36.643Z,2.33
2023-01-19T19:28:09.564Z,2.31
2023-01-19T19:30:43.062Z,2.28
2023-01-19T19:33:16.220Z,2.29
2023-01-19T19:35:49.255Z,2.30
2023-01-19T19:38:22.553Z,2.29
2023-01-19T19:40:57.361Z,2.27
2023-01-19T19:43:34.241Z,2.28
2023-01-19T19:46:10.660Z,2.30
2023-01-19T19:48:44.312Z,2.32
2023-01-19T19:51:19.739Z,2.35
2023-01-19T19:53:53.923Z,2.36
2023-01-19T19:56:28.660Z,2.31
2023-01-19T19:59:02.241Z,2.29
2023-01-19T20:01:35.955Z,2.30
2023-01-19T20:04:10.930Z,2.32
2023-01-19T20:06:44.994Z,2.33
2023-01-19T20:09:19.400Z,2.31
2023-01-19T20:11:53.060Z,2.32
2023-01-19T20:14:25.769Z,2.34
2023-01-19T20:16:59.024Z,2.33
2023-01-19T20:19:32.791Z,2.34
2023-01-19T20:22:06.529Z,2.34
2023-01-19T20:24:40.386Z,2.36
2023-01-19T20:27:13.511Z,2.38
2023-01-19T20:29:51.374Z,2.40
2023-01-19T20:32:24.710Z,2.38
2023-01-19T20:34:57.605Z,2.37
2023-01-19T20:37:30.379Z,2.32
2023-01-19T20:40:03.156Z,2.32
2023-01-19T20:42:36.875Z,2.33
2023-01-19T20:45:11.624Z,2.35
2023-01-19T20:47:45.706Z,2.31
2023-01-19T20:50:19.544Z,2.33
2023-01-19T20:52:52.174Z,2.35
2023-01-19T20:55:24.856Z,2.35
2023-01-19T20:57:58.156Z,2.35
2023-01-19T21:00:31.531Z,2.32
2023-01-19T21:03:04.676Z,2.26
2023-01-19T21:05:37.767Z,2.25
2023-01-19T21:08:10.757Z,2.26
2023-01-19T21:10:44.998Z,2.27
2023-01-19T21:13:17.684Z,2.21
2023-01-19T21:15:50.920Z,2.22
2023-01-19T21:18:23.559Z,2.23
2023-01-19T21:20:57.689Z,2.23
2023-01-19T21:23:30.526Z,2.23
2023-01-19T21:26:03.660Z,2.24
2023-01-19T21:28:36.520Z,2.19
2023-01-19T21:31:12.896Z,2.18
2023-01-19T21:33:46.182Z,2.11
2023-01-19T21:36:19.280Z,2.04
2023-01-19T21:38:55.713Z,1.95
2023-01-19T21:41:29.964Z,1.90
2023-01-19T21:44:04.559Z,1.90
2023-01-19T21:46:37.218Z,1.89
2023-01-19T21:49:14.872Z,1.85
2023-01-19T21:51:49.183Z,1.83
2023-01-19T21:54:22.574Z,1.85
2023-01-19T21:56:55.667Z,1.82
2023-01-19T21:59:30.110Z,1.79
2023-01-19T22:02:03.090Z,1.72
2023-01-19T22:04:39.655Z,1.65
2023-01-19T22:07:12.793Z,1.60
2023-01-19T22:09:46.365Z,1.55
2023-01-19T22:12:20.765Z,1.50
2023-01-19T22:14:54.750Z,1.47
2023-01-19T22:17:27.606Z,1.43
2023-01-19T22:20:00.844Z,1.42
2023-01-19T22:22:34.827Z,1.43
2023-01-19T22:25:08.687Z,1.42
2023-01-19T22:27:41.391Z,1.42
2023-01-19T22:30:17.430Z,1.39
2023-01-19T22:32:50.144Z,1.41
2023-01-19T22:35:23.702Z,1.40
2023-01-19T22:37:56.929Z,1.37
2023-01-19T22:40:29.592Z,1.32
2023-01-19T22:43:02.801Z,1.28
2023-01-19T22:45:35.976Z,1.24
2023-01-19T22:48:10.517Z,1.20
2023-01-19T22:50:43.696Z,1.13
2023-01-19T22:53:17.494Z,1.08
2023-01-19T22:55:51.361Z,1.04
2023-01-19T22:58:24.919Z,1.00
2023-01-19T23:00:57.940Z,0.96
2023-01-19T23:03:32.519Z,0.90
2023-01-19T23:06:08.666Z,0.86
2023-01-19T23:08:42.437Z,0.83
2023-01-19T23:11:17.720Z,0.79
2023-01-19T23:13:50.873Z,0.72
2023-01-19T23:16:23.939Z,0.65
2023-01-19T23:18:57.756Z,0.62
2023-01-19T23:21:32.505Z,0.59
2023-01-19T23:24:07.368Z,0.54
2023-01-19T23:26:40.335Z,0.43
2023-01-19T23:29:16.451Z,0.32
2023-01-19T23:31:50.912Z,0.29
2023-01-19T23:34:25.739Z,0.30
2023-01-19T23:36:58.411Z,0.32
2023-01-19T23:39:31.389Z,0.34
2023-01-19T23:42:05.278Z,0.34
2023-01-19T23:44:39.275Z,0.29
2023-01-19T23:47:12.511Z,0.26
2023-01-19T23:49:45.133Z,0.22
2023-01-19T23:52:18.179Z,0.19
2023-01-19T23:54:50.966Z,0.15
2023-01-19T23:57:24.368Z,0.09
2023-01-19T23:59:57.013Z,0.09
